createdAt,value
2022-09-10T00:01:40.602Z,8.80
2022-09-10T00:04:13.053Z,6.67
2022-09-10T00:06:42.269Z,9.30
2022-09-10T00:09:13.704Z,9.00
2022-09-10T00:11:43.013Z,7.63
2022-09-10T00:14:15.196Z,9.70
2022-09-10T00:16:43.554Z,8.00
2022-09-10T00:19:12.501Z,12.70
2022-09-10T00:21:40.716Z,11.10
2022-09-10T00:24:09.317Z,9.50
2022-09-10T00:26:39.974Z,11.67
2022-09-10T00:29:10.790Z,12.53
2022-09-10T00:31:40.238Z,11.73
2022-09-10T00:34:09.237Z,12.67
2022-09-10T00:36:41.263Z,12.40
2022-09-10T00:39:12.242Z,12.53
2022-09-10T00:41:45.574Z,15.30
2022-09-10T00:44:59.731Z,13.97
2022-09-10T00:47:34.778Z,18.90
2022-09-10T00:50:15.658Z,11.23
2022-09-10T00:52:47.436Z,14.70
2022-09-10T00:55:17.228Z,14.77
2022-09-10T00:57:50.433Z,16.00
2022-09-10T01:00:19.515Z,15.50
2022-09-10T01:02:48.833Z,14.07
2022-09-10T01:05:20.558Z,12.03
2022-09-10T01:07:49.207Z,13.73
2022-09-10T01:10:23.714Z,14.40
2022-09-10T01:13:31.122Z,20.30
2022-09-10T01:16:11.617Z,18.63
2022-09-10T01:18:53.339Z,17.40
2022-09-10T01:21:27.494Z,19.83
2022-09-10T01:24:39.733Z,16.50
2022-09-10T01:27:41.471Z,18.07
2022-09-10T01:30:15.795Z,21.50
2022-09-10T01:32:58.313Z,19.20
2022-09-10T01:35:39.291Z,19.87
2022-09-10T01:38:15.492Z,19.07
2022-09-10T01:40:44.835Z,21.13
2022-09-10T01:43:18.462Z,19.43
2022-09-10T01:46:06.238Z,21.80
2022-09-10T01:49:09.314Z,19.10
2022-09-10T01:51:58.717Z,22.07
2022-09-10T01:54:47.807Z,26.70
2022-09-10T01:57:30.638Z,24.43
2022-09-10T02:00:09.677Z,23.57
2022-09-10T02:02:49.891Z,29.43
2022-09-10T02:05:22.046Z,26.37
2022-09-10T02:07:59.934Z,31.50
2022-09-10T02:10:29.032Z,25.63
2022-09-10T02:12:58.008Z,28.77
2022-09-10T02:15:56.678Z,28.90
2022-09-10T02:18:28.009Z,35.03
2022-09-10T02:20:58.508Z,34.53
2022-09-10T02:23:35.898Z,30.17
2022-09-10T02:26:04.434Z,26.20
2022-09-10T02:28:32.880Z,25.17
2022-09-10T02:31:02.733Z,26.83
2022-09-10T02:33:31.973Z,25.97
2022-09-10T02:36:00.796Z,28.10
2022-09-10T02:38:30.536Z,26.67
2022-09-10T02:40:59.430Z,33.37
2022-09-10T02:43:27.787Z,31.50
2022-09-10T02:45:58.897Z,30.50
2022-09-10T02:48:31.125Z,28.20
2022-09-10T02:50:59.962Z,37.53
2022-09-10T02:53:31.128Z,36.73
2022-09-10T02:56:03.914Z,34.37
2022-09-10T02:58:34.199Z,34.27
2022-09-10T03:01:09.727Z,33.00
2022-09-10T03:03:41.819Z,39.20
2022-09-10T03:06:10.838Z,37.73
2022-09-10T03:08:39.311Z,41.03
2022-09-10T03:11:08.125Z,37.67
2022-09-10T03:13:36.810Z,34.17
2022-09-10T03:16:05.220Z,32.23
2022-09-10T03:18:35.386Z,38.97
2022-09-10T03:21:14.939Z,39.63
2022-09-10T03:23:44.826Z,36.20
2022-09-10T03:26:15.104Z,37.50
2022-09-10T03:28:45.847Z,37.67
2022-09-10T03:31:16.430Z,43.60
2022-09-10T03:33:48.301Z,36.23
2022-09-10T03:36:19.068Z,39.83
2022-09-10T03:38:49.793Z,44.10
2022-09-10T03:41:18.141Z,41.30
2022-09-10T03:43:47.668Z,39.57
2022-09-10T03:46:16.964Z,36.87
2022-09-10T03:48:50.084Z,34.90
2022-09-10T03:51:25.819Z,41.30
2022-09-10T03:53:54.113Z,39.50
2022-09-10T03:56:23.300Z,36.90
2022-09-10T03:58:51.954Z,39.70
2022-09-10T04:01:21.193Z,42.33
2022-09-10T04:03:50.463Z,40.23
2022-09-10T04:06:18.826Z,43.67
2022-09-10T04:08:50.348Z,42.63
2022-09-10T04:11:20.514Z,40.07
2022-09-10T04:13:49.428Z,44.47
2022-09-10T04:16:18.601Z,40.53
2022-09-10T04:18:47.408Z,42.37
2022-09-10T04:21:17.644Z,42.07
2022-09-10T04:23:49.906Z,42.30
2022-09-10T04:26:20.437Z,49.77
2022-09-10T04:28:50.927Z,43.17
2022-09-10T04:31:19.979Z,42.90
2022-09-10T04:33:49.034Z,46.20
2022-09-10T04:36:20.829Z,50.43
2022-09-10T04:38:51.361Z,43.73
2022-09-10T04:41:19.878Z,57.60
2022-09-10T04:43:49.715Z,43.80
2022-09-10T04:46:18.732Z,51.90
2022-09-10T04:48:50.011Z,46.73
2022-09-10T04:51:22.233Z,49.40
2022-09-10T04:53:54.843Z,45.67
2022-09-10T04:56:27.639Z,42.23
2022-09-10T04:58:56.330Z,37.93
2022-09-10T05:01:24.860Z,45.73
2022-09-10T05:03:54.686Z,43.93
2022-09-10T05:06:23.304Z,42.13
2022-09-10T05:08:51.977Z,48.87
2022-09-10T05:11:22.282Z,41.40
2022-09-10T05:13:50.769Z,42.73
2022-09-10T05:16:22.659Z,34.33
2022-09-10T05:18:51.036Z,37.33
2022-09-10T05:21:20.303Z,38.27
2022-09-10T05:23:49.080Z,35.90
2022-09-10T05:26:17.378Z,33.87
2022-09-10T05:28:47.683Z,36.60
2022-09-10T05:31:17.905Z,36.37
2022-09-10T05:33:47.276Z,37.23
2022-09-10T05:36:15.928Z,35.70
2022-09-10T05:38:46.463Z,34.20
2022-09-10T05:41:16.754Z,32.93
2022-09-10T05:43:49.510Z,34.27
2022-09-10T05:46:18.274Z,33.20
2022-09-10T05:48:50.649Z,37.80
2022-09-10T05:51:20.301Z,34.23
2022-09-10T05:53:50.849Z,36.50
2022-09-10T05:56:20.577Z,36.07
2022-09-10T05:58:50.361Z,34.40
2022-09-10T06:01:19.579Z,35.03
2022-09-10T06:03:51.192Z,33.23
2022-09-10T06:06:20.299Z,31.73
2022-09-10T06:08:59.401Z,32.40
2022-09-10T06:11:45.394Z,31.03
2022-09-10T06:14:15.616Z,29.00
2022-09-10T06:16:44.039Z,30.63
2022-09-10T06:19:13.147Z,32.20
2022-09-10T06:21:41.517Z,27.77
2022-09-10T06:24:10.994Z,33.90
2022-09-10T06:26:42.692Z,38.57
2022-09-10T06:29:15.669Z,23.07
2022-09-10T06:31:44.857Z,23.17
2022-09-10T06:34:14.003Z,25.90
2022-09-10T06:36:43.631Z,32.43
2022-09-10T06:39:14.118Z,24.50
2022-09-10T06:41:50.242Z,23.70
2022-09-10T06:44:39.411Z,26.70
2022-09-10T06:48:12.746Z,25.90
2022-09-10T06:50:12.825Z,23.60
2022-09-10T06:52:44.590Z,27.07
2022-09-10T06:55:15.139Z,21.77
2022-09-10T06:57:47.420Z,24.10
2022-09-10T07:00:19.636Z,23.73
2022-09-10T07:02:54.197Z,22.90
2022-09-10T07:05:24.099Z,19.87
2022-09-10T07:07:54.945Z,16.83
2022-09-10T07:10:23.764Z,23.00
2022-09-10T07:12:53.179Z,15.63
2022-09-10T07:15:24.971Z,19.33
2022-09-10T07:17:53.354Z,16.03
2022-09-10T07:20:25.722Z,14.60
2022-09-10T07:22:55.279Z,18.30
2022-09-10T07:25:27.841Z,13.00
2022-09-10T07:28:13.107Z,16.90
2022-09-10T07:30:47.396Z,12.83
2022-09-10T07:33:17.051Z,11.07
2022-09-10T07:35:46.441Z,14.30
2022-09-10T07:38:17.277Z,11.60
2022-09-10T07:40:48.293Z,11.33
2022-09-10T07:43:17.509Z,10.80
2022-09-10T07:45:47.480Z,13.83
2022-09-10T07:48:16.249Z,5.80
2022-09-10T07:50:45.429Z,7.00
2022-09-10T07:53:17.883Z,7.07
2022-09-10T07:55:47.705Z,8.10
2022-09-10T07:58:16.496Z,9.00
2022-09-10T08:00:47.738Z,6.33
2022-09-10T08:03:18.463Z,5.10
2022-09-10T08:05:48.763Z,8.60
2022-09-10T08:08:17.259Z,5.03
2022-09-10T08:10:45.903Z,6.10
2022-09-10T08:13:16.721Z,7.40
2022-09-10T08:15:45.977Z,5.03
2022-09-10T08:18:15.811Z,8.37
2022-09-10T08:20:44.302Z,8.07
2022-09-10T08:23:12.784Z,5.17
2022-09-10T08:25:49.987Z,6.63
2022-09-10T08:28:22.442Z,8.43
2022-09-10T08:31:00.570Z,6.20
2022-09-10T08:33:31.974Z,7.43
2022-09-10T08:36:01.432Z,5.30
2022-09-10T08:38:34.455Z,6.67
2022-09-10T08:41:09.632Z,5.77
2022-09-10T08:43:45.872Z,4.90
2022-09-10T08:46:23.886Z,4.83
2022-09-10T08:49:05.922Z,8.67
2022-09-10T08:51:42.482Z,5.10
2022-09-10T08:54:17.320Z,6.80
2022-09-10T08:56:47.064Z,8.87
2022-09-10T08:59:23.127Z,6.10
2022-09-10T09:01:59.382Z,7.50
2022-09-10T09:04:44.017Z,7.47
2022-09-10T09:07:15.768Z,6.93
2022-09-10T09:09:48.987Z,5.30
2022-09-10T09:12:31.470Z,7.77
2022-09-10T09:15:11.418Z,6.33
2022-09-10T09:18:04.712Z,7.90
2022-09-10T09:20:46.573Z,7.30
2022-09-10T09:23:23.363Z,7.73
2022-09-10T09:26:08.718Z,2.50
2022-09-10T09:28:45.172Z,5.63
2022-09-10T09:31:18.289Z,2.97
2022-09-10T09:33:54.131Z,4.77
2022-09-10T09:36:32.118Z,2.73
2022-09-10T09:39:00.638Z,1.97
2022-09-10T09:41:36.390Z,7.80
2022-09-10T09:44:17.016Z,7.30
2022-09-10T09:46:45.605Z,4.70
2022-09-10T09:49:16.992Z,4.47
2022-09-10T09:51:52.056Z,4.90
2022-09-10T09:55:03.152Z,2.80
2022-09-10T09:57:19.599Z,4.50
2022-09-10T09:59:49.200Z,4.50
2022-09-10T10:02:21.514Z,2.43
2022-09-10T10:05:07.158Z,3.33
2022-09-10T10:07:37.579Z,2.50
2022-09-10T10:10:08.902Z,2.80
2022-09-10T10:12:49.057Z,4.47
2022-09-10T10:15:38.797Z,5.40
2022-09-10T10:18:31.955Z,6.90
2022-09-10T10:21:21.272Z,7.57
2022-09-10T10:23:51.153Z,6.20
2022-09-10T10:26:31.276Z,6.60
2022-09-10T10:29:04.233Z,6.20
2022-09-10T10:31:42.912Z,6.50
2022-09-10T10:34:45.251Z,8.67
2022-09-10T10:37:29.091Z,5.50
2022-09-10T10:40:21.676Z,7.70
2022-09-10T10:43:00.860Z,5.90
2022-09-10T10:45:44.689Z,7.50
2022-09-10T10:48:20.988Z,8.67
2022-09-10T10:50:58.240Z,7.60
2022-09-10T10:53:48.531Z,6.10
2022-09-10T10:56:26.085Z,4.17
2022-09-10T10:59:24.900Z,6.37
2022-09-10T11:01:59.036Z,4.40
2022-09-10T11:04:36.775Z,5.23
2022-09-10T11:07:13.061Z,4.07
2022-09-10T11:09:46.420Z,4.77
2022-09-10T11:12:21.526Z,3.60
2022-09-10T11:14:56.125Z,7.33
2022-09-10T11:17:34.982Z,10.20
2022-09-10T11:20:30.355Z,5.47
2022-09-10T11:23:12.152Z,5.47
2022-09-10T11:25:53.223Z,5.40
2022-09-10T11:28:37.501Z,5.80
2022-09-10T11:31:14.030Z,3.73
2022-09-10T11:33:53.294Z,4.40
2022-09-10T11:36:30.828Z,3.87
2022-09-10T11:39:15.245Z,3.50
2022-09-10T11:41:47.777Z,7.20
2022-09-10T11:44:38.825Z,3.73
2022-09-10T11:47:15.480Z,6.80
2022-09-10T11:49:51.360Z,2.80
2022-09-10T11:52:22.275Z,2.90
2022-09-10T11:54:51.596Z,4.00
2022-09-10T11:57:34.908Z,3.17
2022-09-10T12:00:16.505Z,3.33
2022-09-10T12:03:36.629Z,6.73
2022-09-10T12:06:13.091Z,4.27
2022-09-10T12:09:07.908Z,3.23
2022-09-10T12:11:48.931Z,5.63
2022-09-10T12:14:21.738Z,4.50
2022-09-10T12:16:55.251Z,5.30
2022-09-10T12:19:29.262Z,3.60
2022-09-10T12:22:04.104Z,3.43
2022-09-10T12:24:36.213Z,4.17
2022-09-10T12:27:07.372Z,3.57
2022-09-10T12:29:38.307Z,3.10
2022-09-10T12:32:30.184Z,4.33
2022-09-10T12:35:48.594Z,6.67
2022-09-10T12:38:50.080Z,3.83
2022-09-10T12:41:58.657Z,3.50
2022-09-10T12:44:57.328Z,3.20
2022-09-10T12:47:52.669Z,5.37
2022-09-10T12:50:46.329Z,4.67
2022-09-10T12:54:10.894Z,6.17
2022-09-10T12:57:18.855Z,6.10
2022-09-10T13:00:18.160Z,7.47
2022-09-10T13:02:58.252Z,6.53
2022-09-10T13:05:32.710Z,5.50
2022-09-10T13:08:18.601Z,6.50
2022-09-10T13:11:03.330Z,6.93
2022-09-10T13:13:40.366Z,7.50
2022-09-10T13:16:17.231Z,8.07
2022-09-10T13:18:48.319Z,8.47
2022-09-10T13:21:55.366Z,7.50
2022-09-10T13:25:00.819Z,9.27
2022-09-10T13:27:41.785Z,13.73
2022-09-10T13:30:19.492Z,7.07
2022-09-10T13:32:53.282Z,6.03
2022-09-10T13:36:06.632Z,4.83
2022-09-10T13:39:31.614Z,5.03
2022-09-10T13:42:31.264Z,6.27
2022-09-10T13:45:30.163Z,8.23
2022-09-10T13:48:06.543Z,6.87
2022-09-10T13:50:41.606Z,6.10
2022-09-10T13:53:15.110Z,5.93
2022-09-10T13:55:56.605Z,4.83
2022-09-10T13:58:29.383Z,5.60
2022-09-10T14:01:02.813Z,3.80
2022-09-10T14:03:33.284Z,5.67
2022-09-10T14:06:04.262Z,4.30
2022-09-10T14:08:38.539Z,3.60
2022-09-10T14:11:15.216Z,3.53
2022-09-10T14:13:48.137Z,3.03
2022-09-10T14:16:22.005Z,2.93
2022-09-10T14:18:58.377Z,4.60
2022-09-10T14:21:28.123Z,3.87
2022-09-10T14:24:00.202Z,2.83
2022-09-10T14:26:33.516Z,3.43
2022-09-10T14:29:04.802Z,3.93
2022-09-10T14:31:37.678Z,3.27
2022-09-10T14:34:26.064Z,3.77
2022-09-10T14:36:54.592Z,3.27
2022-09-10T14:39:25.222Z,4.60
2022-09-10T14:42:10.512Z,3.80
2022-09-10T14:44:43.305Z,5.50
2022-09-10T14:47:26.979Z,4.57
2022-09-10T14:49:57.221Z,5.40
2022-09-10T14:52:25.652Z,5.53
2022-09-10T14:54:56.197Z,3.97
2022-09-10T14:57:24.621Z,3.40
2022-09-10T14:59:57.247Z,3.40
2022-09-10T15:02:29.306Z,3.00
2022-09-10T15:04:57.626Z,2.97
2022-09-10T15:07:27.488Z,3.20
2022-09-10T15:09:57.158Z,2.47
2022-09-10T15:12:29.003Z,3.60
2022-09-10T15:14:59.027Z,2.97
2022-09-10T15:17:28.017Z,3.40
2022-09-10T15:19:56.461Z,2.20
2022-09-10T15:22:27.564Z,4.07
2022-09-10T15:25:10.075Z,3.57
2022-09-10T15:27:39.505Z,4.10
2022-09-10T15:30:09.439Z,2.77
2022-09-10T15:32:37.838Z,4.37
2022-09-10T15:35:07.227Z,5.00
2022-09-10T15:37:35.528Z,2.27
2022-09-10T15:40:06.375Z,4.70
2022-09-10T15:42:35.047Z,2.30
2022-09-10T15:45:03.366Z,2.47
2022-09-10T15:47:33.588Z,2.10
2022-09-10T15:50:01.862Z,2.03
2022-09-10T15:52:30.216Z,2.70
2022-09-10T15:54:58.651Z,3.83
2022-09-10T15:57:29.430Z,3.33
2022-09-10T15:59:58.060Z,2.87
2022-09-10T16:02:26.445Z,2.47
2022-09-10T16:04:55.009Z,2.50
2022-09-10T16:07:23.370Z,2.27
2022-09-10T16:09:51.805Z,3.20
2022-09-10T16:12:20.263Z,4.63
2022-09-10T16:14:53.511Z,1.70
2022-09-10T16:17:22.121Z,4.17
2022-09-10T16:19:51.551Z,3.03
2022-09-10T16:22:20.831Z,2.70
2022-09-10T16:24:49.259Z,5.80
2022-09-10T16:27:18.013Z,3.00
2022-09-10T16:29:48.451Z,1.93
2022-09-10T16:32:18.104Z,1.93
2022-09-10T16:34:46.403Z,2.20
2022-09-10T16:37:15.029Z,3.67
2022-09-10T16:39:43.382Z,2.63
2022-09-10T16:42:11.931Z,2.20
2022-09-10T16:44:41.340Z,3.47
2022-09-10T16:47:09.799Z,2.00
2022-09-10T16:49:39.602Z,2.10
2022-09-10T16:52:07.985Z,1.87
2022-09-10T16:54:38.354Z,2.00
2022-09-10T16:57:06.700Z,3.40
2022-09-10T16:59:35.183Z,2.40
2022-09-10T17:02:04.704Z,1.60
2022-09-10T17:04:34.626Z,5.43
2022-09-10T17:07:04.369Z,2.47
2022-09-10T17:09:32.805Z,2.73
2022-09-10T17:12:01.430Z,3.43
2022-09-10T17:14:29.980Z,1.97
2022-09-10T17:16:58.623Z,3.43
2022-09-10T17:19:29.244Z,2.80
2022-09-10T17:21:57.959Z,1.83
2022-09-10T17:24:28.690Z,2.30
2022-09-10T17:26:57.728Z,1.70
2022-09-10T17:29:27.397Z,2.27
2022-09-10T17:31:57.429Z,1.93
2022-09-10T17:34:27.132Z,2.47
2022-09-10T17:36:56.217Z,3.00
2022-09-10T17:39:28.223Z,2.20
2022-09-10T17:41:58.899Z,4.03
2022-09-10T17:44:27.679Z,4.47
2022-09-10T17:46:56.265Z,3.90
2022-09-10T17:49:24.679Z,4.57
2022-09-10T17:51:53.452Z,3.90
2022-09-10T17:54:23.416Z,5.03
2022-09-10T17:56:51.740Z,3.00
2022-09-10T17:59:22.039Z,2.93
2022-09-10T18:01:50.619Z,2.50
2022-09-10T18:04:21.689Z,2.43
2022-09-10T18:06:52.450Z,3.30
2022-09-10T18:09:21.993Z,3.63
2022-09-10T18:11:50.490Z,3.43
2022-09-10T18:14:23.950Z,5.40
2022-09-10T18:16:52.420Z,4.00
2022-09-10T18:19:20.815Z,3.57
2022-09-10T18:21:51.038Z,7.07
2022-09-10T18:24:22.452Z,5.53
2022-09-10T18:26:53.724Z,5.87
2022-09-10T18:29:25.904Z,4.27
2022-09-10T18:31:56.961Z,3.70
2022-09-10T18:34:27.808Z,3.97
2022-09-10T18:36:59.132Z,5.70
2022-09-10T18:39:29.693Z,4.17
2022-09-10T18:41:59.710Z,4.50
2022-09-10T18:44:33.157Z,6.43
2022-09-10T18:47:02.028Z,4.10
2022-09-10T18:49:30.676Z,5.00
2022-09-10T18:51:59.212Z,5.00
2022-09-10T18:54:29.682Z,4.37
2022-09-10T18:56:58.605Z,4.07
2022-09-10T18:59:28.823Z,4.20
2022-09-10T19:01:57.332Z,6.53
2022-09-10T19:04:28.716Z,6.20
2022-09-10T19:06:58.403Z,5.47
2022-09-10T19:09:29.483Z,4.20
2022-09-10T19:12:00.298Z,6.37
2022-09-10T19:14:32.234Z,7.20
2022-09-10T19:17:02.332Z,4.73
2022-09-10T19:19:33.192Z,4.43
2022-09-10T19:22:07.182Z,4.97
2022-09-10T19:24:54.919Z,3.43
2022-09-10T19:27:24.288Z,5.53
2022-09-10T19:29:54.208Z,5.00
2022-09-10T19:32:23.004Z,6.73
2022-09-10T19:34:52.205Z,6.30
2022-09-10T19:37:21.030Z,5.03
2022-09-10T19:39:49.562Z,6.30
2022-09-10T19:42:18.410Z,5.17
2022-09-10T19:44:46.853Z,6.63
2022-09-10T19:47:16.647Z,6.97
2022-09-10T19:49:45.054Z,4.30
2022-09-10T19:52:14.820Z,12.23
2022-09-10T19:54:43.154Z,5.10
2022-09-10T19:57:11.625Z,11.53
2022-09-10T19:59:40.126Z,7.37
2022-09-10T20:02:10.347Z,4.90
2022-09-10T20:04:40.213Z,6.27
2022-09-10T20:07:08.647Z,6.80
2022-09-10T20:09:39.985Z,8.83
2022-09-10T20:12:09.789Z,6.60
2022-09-10T20:14:38.523Z,6.37
2022-09-10T20:17:06.979Z,6.30
2022-09-10T20:19:35.581Z,9.10
2022-09-10T20:22:05.327Z,5.57
2022-09-10T20:24:34.127Z,10.53
2022-09-10T20:27:02.535Z,11.13
2022-09-10T20:29:32.927Z,8.53
2022-09-10T20:32:01.525Z,9.20
2022-09-10T20:34:31.284Z,6.67
2022-09-10T20:36:59.900Z,8.73
2022-09-10T20:39:31.647Z,9.67
2022-09-10T20:42:00.648Z,8.23
2022-09-10T20:44:30.030Z,10.63
2022-09-10T20:46:58.353Z,9.87
2022-09-10T20:49:27.993Z,12.10
2022-09-10T20:51:57.145Z,12.23
2022-09-10T20:54:25.444Z,10.97
2022-09-10T20:56:55.137Z,12.37
2022-09-10T20:59:27.678Z,15.70
2022-09-10T21:01:56.695Z,11.90
2022-09-10T21:04:26.419Z,12.07
2022-09-10T21:06:55.187Z,10.20
2022-09-10T21:09:23.534Z,12.87
2022-09-10T21:11:51.882Z,8.40
2022-09-10T21:14:21.649Z,12.03
2022-09-10T21:16:49.944Z,12.47
2022-09-10T21:19:18.859Z,10.37
2022-09-10T21:21:48.987Z,14.23
2022-09-10T21:24:20.168Z,9.40
2022-09-10T21:26:49.179Z,9.63
2022-09-10T21:29:21.624Z,10.30
2022-09-10T21:31:50.853Z,11.20
2022-09-10T21:34:19.531Z,12.60
2022-09-10T21:36:47.803Z,15.40
2022-09-10T21:39:18.326Z,15.57
2022-09-10T21:41:49.164Z,12.17
2022-09-10T21:44:20.053Z,14.50
2022-09-10T21:46:50.656Z,15.03
2022-09-10T21:49:20.180Z,12.37
2022-09-10T21:51:49.089Z,17.30
2022-09-10T21:54:20.873Z,15.27
2022-09-10T21:56:50.162Z,20.30
2022-09-10T21:59:19.308Z,13.97
2022-09-10T22:01:50.351Z,12.53
2022-09-10T22:04:22.726Z,12.23
2022-09-10T22:06:52.032Z,13.53
2022-09-10T22:09:21.356Z,13.87
2022-09-10T22:11:53.081Z,14.30
2022-09-10T22:14:24.132Z,16.40
2022-09-10T22:16:55.000Z,17.80
2022-09-10T22:19:27.368Z,16.10
2022-09-10T22:21:56.830Z,19.63
2022-09-10T22:24:26.215Z,15.67
2022-09-10T22:26:54.745Z,20.67
2022-09-10T22:29:23.331Z,14.50
2022-09-10T22:31:53.104Z,18.43
2022-09-10T22:34:22.563Z,17.70
2022-09-10T22:36:50.917Z,17.40
2022-09-10T22:39:21.872Z,18.57
2022-09-10T22:41:51.970Z,21.03
2022-09-10T22:44:20.458Z,18.37
2022-09-10T22:46:49.143Z,16.97
2022-09-10T22:49:19.882Z,19.40
2022-09-10T22:51:49.060Z,18.90
2022-09-10T22:54:17.721Z,22.60
2022-09-10T22:56:46.079Z,19.33
2022-09-10T22:59:16.695Z,21.43
2022-09-10T23:01:47.696Z,17.27
2022-09-10T23:04:18.270Z,17.83
2022-09-10T23:06:46.717Z,20.50
2022-09-10T23:09:17.419Z,15.20
2022-09-10T23:11:46.498Z,22.30
2022-09-10T23:14:17.862Z,25.20
2022-09-10T23:16:49.173Z,20.67
2022-09-10T23:19:22.175Z,18.43
2022-09-10T23:21:52.865Z,17.57
2022-09-10T23:24:24.281Z,22.73
2022-09-10T23:26:53.219Z,18.10
2022-09-10T23:29:23.324Z,21.50
2022-09-10T23:31:53.286Z,22.03
2022-09-10T23:34:23.895Z,25.00
2022-09-10T23:36:53.589Z,21.87
2022-09-10T23:39:24.417Z,23.57
2022-09-10T23:41:55.574Z,25.73
2022-09-10T23:44:24.352Z,25.57
2022-09-10T23:46:53.503Z,23.47
2022-09-10T23:49:24.138Z,22.67
2022-09-10T23:51:52.564Z,26.90
2022-09-10T23:54:20.945Z,21.17
2022-09-10T23:56:49.278Z,24.53
2022-09-10T23:59:17.813Z,24.37
